Time;durP1;ratioP1;P1;durP2;ratioP2;P2;SDS_P1;SDS_P2;PMS_P1;PMS_P2;Temp;Humidity;BMP_temperature;BMP_pressure;BME280_temperature;BME280_humidity;BME280_pressure;Samples;Min_cycle;Max_cycle;Signal;HPM_P1;HPM_P2
2023/04/12 00:00:12;;;;;;;11.82;4.20;;;5.40;99.90;;;;;;5066641;28;20108;-63
2023/04/12 00:02:38;;;;;;;12.70;4.65;;;5.60;99.90;;;;;;5060845;28;20500;-65
2023/04/12 00:05:04;;;;;;;11.57;4.15;;;5.60;99.90;;;;;;5054491;28;20024;-64
2023/04/12 00:07:29;;;;;;;9.65;4.57;;;5.60;99.90;;;;;;5049262;28;20886;-63
2023/04/12 00:09:55;;;;;;;12.18;4.15;;;5.70;99.90;;;;;;5046529;28;20029;-64
2023/04/12 00:12:21;;;;;;;13.95;4.80;;;5.70;99.90;;;;;;5049934;28;20063;-65
2023/04/12 00:14:47;;;;;;;9.20;4.68;;;5.80;99.90;;;;;;5047933;28;20043;-66
2023/04/12 00:17:13;;;;;;;10.57;4.90;;;5.80;99.90;;;;;;5052066;28;20029;-64
2023/04/12 00:19:42;;;;;;;12.45;4.18;;;5.80;99.90;;;;;;5048639;28;20043;-65
2023/04/12 00:22:11;;;;;;;14.75;4.80;;;5.80;99.90;;;;;;5052225;28;20040;-70
2023/04/12 00:24:40;;;;;;;10.73;5.03;;;5.80;99.90;;;;;;5047202;28;20040;-67
2023/04/12 00:27:06;;;;;;;11.88;5.10;;;5.70;99.90;;;;;;5053241;28;20111;-64
2023/04/12 00:29:32;;;;;;;11.65;5.00;;;5.70;99.90;;;;;;5047081;28;20029;-66
2023/04/12 00:32:00;;;;;;;16.83;5.47;;;5.60;99.90;;;;;;5059920;28;20481;-65
2023/04/12 00:34:28;;;;;;;16.05;5.60;;;5.50;99.90;;;;;;5051132;28;20040;-66
2023/04/12 00:36:55;;;;;;;9.30;4.28;;;5.50;99.90;;;;;;5055895;28;20032;-66
2023/04/12 00:39:20;;;;;;;9.98;3.55;;;5.50;99.90;;;;;;5052450;28;20033;-64
2023/04/12 00:41:46;;;;;;;11.32;5.13;;;5.60;99.90;;;;;;5067298;28;20036;-65
2023/04/12 00:44:12;;;;;;;10.27;4.85;;;5.60;99.90;;;;;;5060191;28;20385;-70
2023/04/12 00:46:38;;;;;;;9.60;4.28;;;5.70;99.90;;;;;;5054546;28;20139;-64
2023/04/12 00:49:04;;;;;;;14.07;4.95;;;5.60;99.90;;;;;;5048046;28;20112;-64
2023/04/12 00:51:32;;;;;;;15.38;5.03;;;5.50;99.90;;;;;;5066671;28;20048;-64
2023/04/12 00:54:00;;;;;;;11.13;4.38;;;5.40;99.90;;;;;;5054109;28;20041;-64
2023/04/12 00:56:27;;;;;;;12.23;4.25;;;5.50;99.90;;;;;;5060182;28;20449;-64
2023/04/12 00:58:53;;;;;;;14.30;5.00;;;5.50;99.90;;;;;;5051813;28;20040;-64
2023/04/12 01:01:20;;;;;;;10.18;4.07;;;5.40;99.90;;;;;;5048257;28;20186;-64
2023/04/12 01:03:47;;;;;;;12.82;3.70;;;5.50;99.90;;;;;;5057692;28;20044;-66
2023/04/12 01:06:25;;;;;;;8.25;3.80;;;5.70;99.90;;;;;;5062611;28;20052;-71
2023/04/12 01:09:00;;;;;;;12.18;3.58;;;5.90;99.90;;;;;;5056382;28;20758;-65
2023/04/12 01:11:34;;;;;;;11.82;3.10;;;6.00;99.90;;;;;;5066803;28;20047;-67
2023/04/12 01:14:18;;;;;;;9.38;3.60;;;6.20;99.90;;;;;;5066401;28;20035;-65
2023/04/12 01:16:50;;;;;;;6.68;2.55;;;6.40;99.90;;;;;;5048012;28;20033;-64
2023/04/12 01:19:30;;;;;;;10.68;2.63;;;6.60;99.90;;;;;;5044597;28;20037;-70
2023/04/12 01:22:12;;;;;;;6.47;2.17;;;6.90;99.90;;;;;;5066209;28;20036;-66
2023/04/12 01:25:01;;;;;;;10.63;2.50;;;7.00;99.90;;;;;;5055898;28;20030;-65
2023/04/12 01:27:37;;;;;;;4.88;2.13;;;7.00;99.90;;;;;;5044922;28;20494;-69
2023/04/12 01:30:07;;;;;;;5.60;2.40;;;7.00;99.90;;;;;;5050897;28;20031;-64
2023/04/12 01:32:35;;;;;;;8.70;2.47;;;7.00;99.90;;;;;;5063943;28;20024;-65
2023/04/12 01:35:03;;;;;;;9.95;2.75;;;7.00;99.90;;;;;;5045793;28;20037;-65
2023/04/12 01:37:29;;;;;;;5.60;2.22;;;7.00;99.90;;;;;;5052331;28;20029;-69
2023/04/12 01:39:55;;;;;;;11.15;2.58;;;7.00;99.90;;;;;;5070433;28;20432;-65
2023/04/12 01:42:21;;;;;;;10.45;2.70;;;7.00;99.90;;;;;;5050618;28;20102;-68
2023/04/12 01:44:46;;;;;;;5.72;2.05;;;7.00;99.90;;;;;;5064083;28;20087;-68
2023/04/12 01:47:12;;;;;;;12.02;2.53;;;6.90;99.90;;;;;;5051075;28;20090;-70
2023/04/12 01:50:00;;;;;;;4.43;2.00;;;7.00;99.90;;;;;;5050357;28;20029;-68
2023/04/12 01:52:30;;;;;;;10.23;1.90;;;6.90;99.90;;;;;;5069976;28;20040;-63
2023/04/12 01:55:00;;;;;;;6.65;2.10;;;6.90;99.90;;;;;;5059564;28;20029;-64
2023/04/12 01:57:26;;;;;;;9.07;2.63;;;7.00;99.90;;;;;;5051338;28;20030;-64
2023/04/12 01:59:53;;;;;;;7.93;2.38;;;6.90;99.90;;;;;;5055224;28;20037;-64
2023/04/12 02:02:19;;;;;;;5.97;2.50;;;6.90;99.90;;;;;;5067065;28;20036;-65
2023/04/12 02:04:46;;;;;;;10.55;2.22;;;6.90;99.90;;;;;;5052770;28;20042;-65
2023/04/12 02:07:14;;;;;;;6.88;2.40;;;6.90;99.90;;;;;;5043239;28;20513;-63
2023/04/12 02:09:40;;;;;;;6.93;2.28;;;6.90;99.90;;;;;;5047405;28;20036;-66
2023/04/12 02:12:06;;;;;;;9.20;2.00;;;6.80;99.90;;;;;;5050343;28;20032;-63
2023/04/12 02:14:32;;;;;;;10.13;2.55;;;6.80;99.90;;;;;;5065245;28;20122;-67
2023/04/12 02:17:01;;;;;;;10.07;2.40;;;6.80;99.90;;;;;;5068796;28;20036;-64
2023/04/12 02:19:26;;;;;;;6.80;2.30;;;6.70;99.90;;;;;;5046103;28;20028;-66
2023/04/12 02:21:52;;;;;;;12.00;2.50;;;6.70;99.90;;;;;;5048699;28;20035;-65
2023/04/12 02:24:18;;;;;;;8.27;2.40;;;6.70;99.90;;;;;;5051673;28;20033;-68
2023/04/12 02:26:45;;;;;;;6.15;2.33;;;6.70;99.90;;;;;;5052240;28;20105;-63
2023/04/12 02:29:11;;;;;;;7.90;2.72;;;6.70;99.90;;;;;;5050974;28;20037;-63
2023/04/12 02:31:37;;;;;;;12.63;2.65;;;6.60;99.90;;;;;;5063201;28;20107;-66
2023/04/12 02:34:04;;;;;;;13.00;2.47;;;6.60;99.90;;;;;;5068766;28;20487;-62
2023/04/12 02:36:30;;;;;;;7.45;2.40;;;6.60;99.90;;;;;;5069208;28;20364;-64
2023/04/12 02:38:56;;;;;;;6.93;2.25;;;6.70;99.90;;;;;;5040342;28;20037;-65
2023/04/12 02:41:22;;;;;;;7.57;2.28;;;6.70;99.90;;;;;;5035553;28;20036;-64
2023/04/12 02:43:48;;;;;;;6.07;2.28;;;6.70;99.90;;;;;;5060764;28;20030;-64
2023/04/12 02:46:20;;;;;;;6.85;2.53;;;6.70;99.90;;;;;;5053728;28;20028;-63
2023/04/12 02:48:46;;;;;;;9.30;2.50;;;6.60;99.90;;;;;;5046494;28;20056;-67
2023/04/12 02:51:12;;;;;;;8.40;2.72;;;6.60;99.90;;;;;;5052179;28;20056;-65
2023/04/12 02:53:37;;;;;;;10.93;2.63;;;6.70;99.90;;;;;;5048932;28;20353;-65
2023/04/12 02:56:04;;;;;;;13.02;2.58;;;6.60;99.90;;;;;;5043364;28;20136;-64
2023/04/12 02:58:32;;;;;;;8.75;2.95;;;6.60;99.90;;;;;;5045398;28;20040;-64
2023/04/12 03:00:58;;;;;;;12.00;2.90;;;6.50;99.90;;;;;;5049283;28;20033;-64
2023/04/12 03:03:25;;;;;;;7.03;2.75;;;6.50;99.90;;;;;;5054440;28;20414;-66
2023/04/12 03:05:54;;;;;;;6.97;2.88;;;6.50;99.90;;;;;;5050307;28;20051;-65
2023/04/12 03:08:20;;;;;;;8.27;2.78;;;6.50;99.90;;;;;;5052160;28;20512;-68
2023/04/12 03:10:46;;;;;;;8.07;3.05;;;6.50;99.90;;;;;;5069095;28;20064;-65
2023/04/12 03:13:12;;;;;;;6.03;2.85;;;6.50;99.90;;;;;;5066279;28;20075;-65
2023/04/12 03:15:38;;;;;;;8.88;2.45;;;6.50;99.90;;;;;;5054061;28;20195;-65
2023/04/12 03:18:03;;;;;;;8.95;2.88;;;6.50;99.90;;;;;;5054756;28;20032;-62
2023/04/12 03:20:29;;;;;;;6.80;2.67;;;6.50;99.90;;;;;;5058236;28;20071;-65
2023/04/12 03:22:55;;;;;;;8.88;2.45;;;6.50;99.90;;;;;;5055046;28;20068;-63
2023/04/12 03:25:21;;;;;;;8.90;2.78;;;6.40;99.90;;;;;;5051447;28;20116;-69
2023/04/12 03:27:46;;;;;;;8.63;2.80;;;6.50;99.90;;;;;;5052863;28;20028;-65
2023/04/12 03:30:12;;;;;;;7.97;3.25;;;6.50;99.90;;;;;;5067443;28;20136;-63
2023/04/12 03:32:41;;;;;;;7.88;3.28;;;6.60;99.90;;;;;;5062859;28;20217;-62
2023/04/12 03:35:08;;;;;;;10.27;3.08;;;6.60;99.90;;;;;;5046542;28;20059;-64
2023/04/12 03:37:34;;;;;;;8.43;3.00;;;6.60;99.90;;;;;;5027824;28;20478;-62
2023/04/12 03:40:00;;;;;;;9.25;3.25;;;6.70;99.90;;;;;;5057425;28;20464;-63
2023/04/12 03:42:27;;;;;;;7.28;3.15;;;6.70;99.90;;;;;;5047967;28;20044;-66
2023/04/12 03:44:53;;;;;;;11.38;3.10;;;6.70;99.90;;;;;;5055841;28;20501;-63
2023/04/12 03:47:20;;;;;;;10.80;3.38;;;6.70;99.90;;;;;;5048177;28;20059;-68
2023/04/12 03:49:49;;;;;;;7.80;3.25;;;6.80;99.90;;;;;;5058430;28;20029;-63
2023/04/12 03:52:14;;;;;;;6.20;3.30;;;6.80;99.90;;;;;;5066533;28;20084;-66
2023/04/12 03:54:40;;;;;;;10.13;3.85;;;6.80;99.90;;;;;;5054912;28;20645;-64
2023/04/12 03:57:06;;;;;;;7.35;3.13;;;6.80;99.90;;;;;;5046785;28;20037;-66
2023/04/12 03:59:32;;;;;;;7.57;2.92;;;6.80;99.90;;;;;;5057416;28;20039;-65
2023/04/12 04:01:59;;;;;;;9.13;3.30;;;6.80;99.90;;;;;;5068373;28;20021;-64
2023/04/12 04:04:26;;;;;;;7.63;3.58;;;6.80;99.90;;;;;;5055586;28;20033;-64
2023/04/12 04:06:52;;;;;;;6.85;3.25;;;6.70;99.90;;;;;;5058791;28;20028;-64
2023/04/12 04:09:18;;;;;;;4.63;2.60;;;6.70;99.90;;;;;;5055615;28;20079;-64
2023/04/12 04:11:43;;;;;;;9.60;2.90;;;6.70;99.90;;;;;;5065175;28;20101;-64
2023/04/12 04:14:09;;;;;;;5.00;2.38;;;6.70;99.90;;;;;;5065522;28;20040;-64
2023/04/12 04:16:35;;;;;;;9.02;2.80;;;6.60;99.90;;;;;;5061334;28;20439;-62
2023/04/12 04:19:00;;;;;;;9.18;4.05;;;6.70;99.90;;;;;;5058382;28;20039;-64
2023/04/12 04:21:29;;;;;;;8.18;3.30;;;6.60;99.90;;;;;;5045416;28;20041;-66
2023/04/12 04:23:57;;;;;;;7.47;3.53;;;6.70;99.90;;;;;;5048695;28;20362;-63
2023/04/12 04:26:32;;;;;;;5.90;3.30;;;6.70;99.90;;;;;;5046187;28;20032;-68
2023/04/12 04:29:02;;;;;;;6.00;2.70;;;6.70;99.90;;;;;;5049433;28;20067;-64
2023/04/12 04:31:33;;;;;;;5.15;2.40;;;6.70;99.90;;;;;;5044709;28;20060;-69
2023/04/12 04:34:04;;;;;;;3.92;2.10;;;6.80;99.90;;;;;;5043746;28;20044;-65
2023/04/12 04:36:32;;;;;;;6.38;2.35;;;6.80;99.90;;;;;;5044387;28;20041;-64
2023/04/12 04:38:58;;;;;;;7.10;2.28;;;6.80;99.90;;;;;;5054637;28;20075;-65
2023/04/12 04:41:25;;;;;;;6.10;2.90;;;6.80;99.90;;;;;;5053869;28;20049;-70
2023/04/12 04:43:51;;;;;;;6.07;2.80;;;6.80;99.90;;;;;;5027602;28;20037;-63
2023/04/12 04:46:19;;;;;;;6.18;2.90;;;6.80;99.90;;;;;;5031725;28;20044;-67
2023/04/12 04:48:47;;;;;;;7.25;3.03;;;6.80;99.90;;;;;;5046186;28;20028;-63
2023/04/12 04:51:13;;;;;;;6.97;2.63;;;6.80;99.90;;;;;;5043544;28;20132;-63
2023/04/12 04:53:39;;;;;;;5.53;2.72;;;6.80;99.90;;;;;;5046667;28;20105;-62
2023/04/12 04:56:05;;;;;;;7.47;3.00;;;6.80;99.90;;;;;;5045750;28;20142;-62
2023/04/12 04:58:31;;;;;;;6.88;2.97;;;6.80;99.90;;;;;;5046746;28;20037;-63
2023/04/12 05:00:58;;;;;;;4.78;2.50;;;6.80;99.90;;;;;;5046548;28;20049;-66
2023/04/12 05:03:27;;;;;;;10.95;3.38;;;6.80;99.90;;;;;;5045938;28;20354;-69
2023/04/12 05:05:54;;;;;;;10.45;4.18;;;6.90;99.90;;;;;;5045759;28;20033;-63
2023/04/12 05:08:19;;;;;;;6.45;3.15;;;6.90;99.90;;;;;;5056045;28;20505;-66
2023/04/12 05:10:53;;;;;;;6.32;3.20;;;6.90;99.90;;;;;;5062007;28;20059;-64
2023/04/12 05:13:20;;;;;;;8.00;3.10;;;6.90;99.90;;;;;;5048997;28;20039;-64
2023/04/12 05:15:46;;;;;;;9.07;3.58;;;6.90;99.90;;;;;;5057036;28;20020;-65
2023/04/12 05:18:12;;;;;;;6.50;3.30;;;6.90;99.90;;;;;;5050942;28;20040;-63
2023/04/12 05:20:38;;;;;;;8.57;3.75;;;6.90;99.90;;;;;;5058385;28;20546;-64
2023/04/12 05:23:04;;;;;;;7.95;3.80;;;6.90;99.90;;;;;;5048132;28;20037;-64
2023/04/12 05:25:29;;;;;;;7.05;3.78;;;6.90;99.90;;;;;;5052318;28;20159;-65
2023/04/12 05:27:55;;;;;;;11.10;4.03;;;6.90;99.90;;;;;;5048294;28;20029;-64
2023/04/12 05:30:21;;;;;;;9.15;3.92;;;7.00;99.90;;;;;;5051025;28;20036;-65
2023/04/12 05:32:46;;;;;;;8.23;4.20;;;7.00;99.90;;;;;;5045869;28;20033;-65
2023/04/12 05:35:12;;;;;;;7.68;3.60;;;7.00;99.90;;;;;;5049361;28;20044;-63
2023/04/12 05:37:38;;;;;;;8.07;3.75;;;7.00;99.90;;;;;;5048289;28;20024;-66
2023/04/12 05:40:08;;;;;;;8.00;3.88;;;7.00;99.90;;;;;;5050790;28;20029;-63
2023/04/12 05:42:37;;;;;;;9.63;4.00;;;7.10;99.90;;;;;;5046872;28;20075;-65
2023/04/12 05:45:03;;;;;;;8.15;4.35;;;7.10;99.90;;;;;;5050737;28;20120;-65
2023/04/12 05:47:29;;;;;;;9.48;4.10;;;7.10;99.90;;;;;;5033867;28;20799;-71
2023/04/12 05:49:55;;;;;;;8.60;3.92;;;7.10;99.90;;;;;;5029246;28;20048;-63
2023/04/12 05:52:20;;;;;;;8.65;4.15;;;7.10;99.90;;;;;;5039894;28;20611;-63
2023/04/12 05:54:46;;;;;;;8.38;3.97;;;7.10;99.90;;;;;;5048784;28;20041;-66
2023/04/12 05:57:11;;;;;;;7.28;3.80;;;7.10;99.90;;;;;;5047821;28;20045;-65
2023/04/12 05:59:37;;;;;;;8.07;3.72;;;7.10;99.90;;;;;;5049404;28;20043;-62
2023/04/12 06:02:03;;;;;;;8.88;3.50;;;7.20;99.90;;;;;;5040492;28;20032;-67
2023/04/12 06:04:30;;;;;;;9.57;3.20;;;7.20;99.90;;;;;;5048757;28;20146;-69
2023/04/12 06:06:56;;;;;;;7.80;3.67;;;7.20;99.90;;;;;;5051526;28;20117;-66
2023/04/12 06:09:22;;;;;;;6.13;3.20;;;7.30;99.90;;;;;;5058041;28;20158;-65
2023/04/12 06:11:47;;;;;;;6.78;3.67;;;7.30;99.90;;;;;;5057569;28;20024;-64
2023/04/12 06:14:13;;;;;;;12.70;5.68;;;7.30;99.90;;;;;;5047454;28;20428;-64
2023/04/12 06:16:39;;;;;;;17.10;9.07;;;7.30;99.90;;;;;;5040488;28;20057;-64
2023/04/12 06:19:04;;;;;;;10.25;4.47;;;7.30;99.90;;;;;;5028332;28;20071;-66
2023/04/12 06:21:30;;;;;;;7.80;4.25;;;7.30;99.90;;;;;;5032354;28;20121;-70
2023/04/12 06:23:56;;;;;;;9.98;3.83;;;7.30;99.90;;;;;;5040511;28;20055;-64
2023/04/12 06:26:21;;;;;;;7.90;4.28;;;7.30;99.90;;;;;;5049346;28;20025;-64
2023/04/12 06:28:47;;;;;;;9.50;4.22;;;7.30;99.90;;;;;;5047651;28;20033;-67
2023/04/12 06:31:14;;;;;;;8.57;3.92;;;7.30;99.90;;;;;;5049035;28;20025;-64
2023/04/12 06:33:40;;;;;;;14.27;7.40;;;7.30;99.90;;;;;;5045765;28;20449;-63
2023/04/12 06:36:06;;;;;;;9.90;4.22;;;7.30;99.90;;;;;;5047668;28;20044;-65
2023/04/12 06:38:32;;;;;;;11.07;4.60;;;7.30;99.90;;;;;;5047376;28;20366;-66
2023/04/12 06:40:58;;;;;;;8.55;4.15;;;7.30;99.90;;;;;;5047097;28;20052;-64
2023/04/12 06:43:24;;;;;;;6.40;3.20;;;7.30;99.90;;;;;;5046167;28;20025;-63
2023/04/12 06:45:50;;;;;;;10.73;3.92;;;7.30;99.90;;;;;;5046579;28;20040;-63
2023/04/12 06:48:15;;;;;;;10.23;3.60;;;7.40;99.90;;;;;;5058265;28;20663;-63
2023/04/12 06:50:41;;;;;;;7.15;4.10;;;7.40;99.90;;;;;;5064905;28;20044;-64
2023/04/12 06:53:07;;;;;;;7.32;3.22;;;7.40;99.90;;;;;;5054908;28;20032;-66
2023/04/12 06:55:33;;;;;;;4.60;2.60;;;7.40;99.90;;;;;;5048688;28;20117;-69
2023/04/12 06:57:59;;;;;;;4.65;2.08;;;7.40;99.90;;;;;;5055332;28;20085;-64
2023/04/12 07:00:25;;;;;;;4.82;2.30;;;7.40;99.90;;;;;;5047227;28;20029;-63
2023/04/12 07:02:51;;;;;;;4.25;1.90;;;7.40;99.90;;;;;;5045316;28;20642;-65
2023/04/12 07:05:16;;;;;;;3.42;1.85;;;7.40;99.90;;;;;;5047016;28;20039;-66
2023/04/12 07:07:43;;;;;;;3.50;1.60;;;7.40;99.90;;;;;;5040010;28;20029;-65
2023/04/12 07:10:09;;;;;;;3.00;1.58;;;7.40;99.90;;;;;;5051635;28;20033;-64
2023/04/12 07:12:35;;;;;;;2.95;1.60;;;7.40;99.90;;;;;;5038469;28;20025;-64
2023/04/12 07:15:00;;;;;;;2.47;1.20;;;7.40;99.90;;;;;;5066480;28;20033;-64
2023/04/12 07:17:26;;;;;;;91.30;41.75;;;7.50;99.90;;;;;;5051161;28;20483;-64
2023/04/12 07:19:53;;;;;;;27.23;12.30;;;7.50;99.90;;;;;;5045776;28;20024;-65
2023/04/12 07:22:19;;;;;;;5.28;2.60;;;7.50;99.90;;;;;;5046608;28;20025;-64
2023/04/12 07:24:44;;;;;;;4.03;1.45;;;7.60;99.90;;;;;;5044884;28;20033;-66
2023/04/12 07:27:10;;;;;;;4.80;2.67;;;7.60;99.90;;;;;;5060868;28;20045;-65
2023/04/12 07:29:36;;;;;;;3.03;1.92;;;7.60;99.90;;;;;;5053557;28;20530;-65
2023/04/12 07:32:02;;;;;;;2.92;1.83;;;7.70;99.90;;;;;;5047630;28;20033;-67
2023/04/12 07:34:28;;;;;;;5.20;1.92;;;7.60;99.90;;;;;;5054307;28;20033;-64
2023/04/12 07:36:53;;;;;;;16.98;7.43;;;7.60;99.90;;;;;;5052035;28;20173;-64
2023/04/12 07:39:19;;;;;;;3.97;2.20;;;7.70;99.90;;;;;;5043073;28;20037;-64
2023/04/12 07:41:47;;;;;;;4.65;2.20;;;7.70;99.90;;;;;;5027763;28;20026;-64
2023/04/12 07:44:12;;;;;;;5.63;2.38;;;7.70;99.90;;;;;;5044302;28;20037;-64
2023/04/12 07:46:39;;;;;;;5.85;2.30;;;7.70;99.90;;;;;;5047824;28;20078;-63
2023/04/12 07:49:04;;;;;;;4.50;2.53;;;7.80;99.90;;;;;;5047766;28;20063;-63
2023/04/12 07:51:31;;;;;;;4.70;2.20;;;7.80;99.90;;;;;;5048146;28;20080;-63
2023/04/12 07:53:57;;;;;;;4.25;2.10;;;7.90;99.90;;;;;;5047714;28;20043;-65
2023/04/12 07:56:22;;;;;;;3.83;2.22;;;7.90;99.90;;;;;;5047157;28;20041;-62
2023/04/12 07:58:48;;;;;;;4.28;2.20;;;7.90;99.90;;;;;;5046497;28;20032;-63
2023/04/12 08:01:14;;;;;;;6.63;2.53;;;8.00;99.90;;;;;;5046277;28;20057;-62
2023/04/12 08:03:40;;;;;;;4.72;2.30;;;8.10;99.90;;;;;;5047573;28;20074;-63
2023/04/12 08:06:07;;;;;;;3.42;2.20;;;8.10;99.90;;;;;;5048329;28;20028;-66
2023/04/12 08:08:32;;;;;;;4.07;1.98;;;8.10;99.90;;;;;;5044553;28;20427;-68
2023/04/12 08:11:01;;;;;;;3.70;1.90;;;8.10;99.90;;;;;;5047440;28;20029;-62
2023/04/12 08:13:27;;;;;;;2.75;1.80;;;8.10;99.90;;;;;;5048283;28;20033;-66
2023/04/12 08:15:52;;;;;;;7.32;2.22;;;8.10;99.90;;;;;;5047465;28;20056;-63
2023/04/12 08:18:18;;;;;;;7.40;2.75;;;8.10;99.90;;;;;;5047074;28;20032;-62
2023/04/12 08:20:44;;;;;;;6.00;2.17;;;8.20;99.90;;;;;;5047164;28;20037;-63
2023/04/12 08:23:10;;;;;;;6.65;3.08;;;8.20;99.90;;;;;;5047737;28;20048;-64
2023/04/12 08:25:37;;;;;;;4.88;2.40;;;8.20;99.90;;;;;;5047384;28;20675;-69
2023/04/12 08:28:03;;;;;;;5.40;2.30;;;8.20;99.90;;;;;;5048143;28;20120;-63
2023/04/12 08:30:29;;;;;;;6.28;2.35;;;8.30;99.90;;;;;;5047021;28;20167;-64
2023/04/12 08:32:55;;;;;;;4.68;2.70;;;8.30;99.90;;;;;;5047302;28;20036;-62
2023/04/12 08:35:22;;;;;;;5.30;2.30;;;8.40;99.90;;;;;;5047049;28;20033;-62
2023/04/12 08:37:48;;;;;;;3.80;2.10;;;8.40;99.90;;;;;;5047106;28;20060;-62
2023/04/12 08:40:14;;;;;;;3.88;2.00;;;8.40;99.90;;;;;;5046849;28;20541;-64
2023/04/12 08:42:40;;;;;;;3.78;1.92;;;8.40;99.90;;;;;;5045724;28;20039;-62
2023/04/12 08:45:08;;;;;;;4.78;1.92;;;8.50;99.90;;;;;;5046354;28;20041;-63
2023/04/12 08:47:45;;;;;;;4.38;1.77;;;8.50;99.90;;;;;;5051247;28;20437;-63
2023/04/12 08:50:16;;;;;;;6.90;1.83;;;8.50;99.90;;;;;;5051656;28;20107;-62
2023/04/12 08:52:41;;;;;;;;;;;8.60;99.90;;;;;;5049405;28;20700;-64
2023/04/12 08:55:08;;;;;;;5.65;2.75;;;8.60;99.90;;;;;;5051868;28;20006;-64
2023/04/12 08:57:35;;;;;;;7.70;2.28;;;8.70;99.90;;;;;;5051746;28;20474;-63
2023/04/12 09:00:02;;;;;;;9.20;2.65;;;8.70;99.90;;;;;;5051146;28;20033;-62
2023/04/12 09:02:28;;;;;;;5.57;1.98;;;8.70;99.90;;;;;;5050270;28;20064;-63
2023/04/12 09:04:54;;;;;;;3.53;2.03;;;8.60;99.90;;;;;;5051078;28;20065;-62
2023/04/12 09:07:26;;;;;;;3.95;2.08;;;8.60;99.90;;;;;;5050814;28;20041;-64
2023/04/12 09:09:52;;;;;;;4.60;2.00;;;8.60;99.90;;;;;;5050934;28;20068;-66
2023/04/12 09:12:21;;;;;;;3.42;1.90;;;8.60;99.90;;;;;;5050148;28;20033;-63
2023/04/12 09:14:47;;;;;;;5.25;2.45;;;8.60;99.90;;;;;;5050776;28;20029;-66
2023/04/12 09:17:39;;;;;;;4.72;2.42;;;8.70;99.90;;;;;;5051473;28;20044;-64
2023/04/12 09:20:11;;;;;;;6.05;2.20;;;8.70;99.90;;;;;;5047567;28;20041;-63
2023/04/12 09:22:43;;;;;;;5.57;2.53;;;8.70;99.90;;;;;;5048176;28;20036;-66
2023/04/12 09:25:10;;;;;;;4.90;2.40;;;8.70;99.90;;;;;;5051278;28;20052;-64
2023/04/12 09:27:50;;;;;;;6.63;2.80;;;8.70;99.90;;;;;;5050197;28;20040;-64
2023/04/12 09:30:17;;;;;;;4.78;2.65;;;8.80;99.90;;;;;;5049756;28;20053;-63
2023/04/12 09:32:43;;;;;;;9.57;3.28;;;8.80;99.90;;;;;;5049340;28;20052;-63
2023/04/12 09:35:10;;;;;;;4.05;2.50;;;8.90;99.90;;;;;;5051208;28;20055;-62
2023/04/12 09:37:35;;;;;;;4.60;2.63;;;8.90;99.90;;;;;;5051146;28;20033;-62
2023/04/12 09:40:04;;;;;;;5.32;3.05;;;8.80;99.90;;;;;;5048907;28;20030;-65
2023/04/12 09:42:30;;;;;;;5.80;2.90;;;8.80;99.90;;;;;;5049678;28;20052;-64
2023/04/12 09:45:00;;;;;;;5.05;3.00;;;8.90;99.90;;;;;;5048916;28;20036;-62
2023/04/12 09:47:39;;;;;;;7.78;3.13;;;8.90;99.90;;;;;;5050095;28;20035;-65
2023/04/12 09:50:08;;;;;;;6.25;3.22;;;9.00;99.90;;;;;;5048885;28;20519;-62
2023/04/12 09:52:39;;;;;;;5.13;2.97;;;8.90;99.90;;;;;;5050108;28;20049;-62
2023/04/12 09:55:09;;;;;;;7.47;3.28;;;8.90;99.90;;;;;;5049966;28;20052;-63
2023/04/12 09:57:42;;;;;;;;;;;8.90;99.90;;;;;;5050892;28;20064;-63
2023/04/12 10:00:15;;;;;;;6.78;3.00;;;9.00;99.90;;;;;;5050229;28;19912;-63
2023/04/12 10:02:43;;;;;;;5.95;3.17;;;9.00;99.90;;;;;;5049254;28;20033;-70
2023/04/12 10:05:16;;;;;;;5.95;3.20;;;9.10;99.90;;;;;;5048970;28;20041;-66
2023/04/12 10:07:44;;;;;;;7.80;3.17;;;9.10;99.90;;;;;;5048212;28;20115;-69
2023/04/12 10:10:12;;;;;;;9.00;3.97;;;9.10;99.90;;;;;;5050393;28;20124;-65
2023/04/12 10:12:40;;;;;;;8.23;3.58;;;9.10;99.90;;;;;;5049553;28;20114;-62
2023/04/12 10:15:11;;;;;;;7.97;3.80;;;9.20;99.90;;;;;;5049138;28;20116;-62
2023/04/12 10:17:43;;;;;;;7.15;3.50;;;9.30;99.90;;;;;;5050655;28;20032;-63
2023/04/12 10:20:10;;;;;;;9.93;4.10;;;9.40;99.90;;;;;;5050114;28;20064;-63
2023/04/12 10:22:44;;;;;;;9.32;4.45;;;9.50;99.90;;;;;;5047833;28;20481;-64
2023/04/12 10:25:14;;;;;;;7.97;4.40;;;9.50;99.90;;;;;;5050365;28;20114;-64
2023/04/12 10:27:42;;;;;;;10.00;4.47;;;9.50;99.90;;;;;;5050010;28;20048;-64
2023/04/12 10:30:28;;;;;;;9.85;4.25;;;9.50;99.90;;;;;;5049734;28;20260;-64
2023/04/12 10:33:05;;;;;;;8.82;4.30;;;9.50;99.90;;;;;;5048450;28;20481;-62
2023/04/12 10:35:59;;;;;;;8.82;4.15;;;9.50;99.90;;;;;;5050285;28;20583;-63
2023/04/12 10:38:30;;;;;;;9.23;4.25;;;9.50;99.90;;;;;;5049014;28;20061;-63
2023/04/12 10:41:11;;;;;;;;;;;9.50;99.90;;;;;;5048540;28;20339;-64
2023/04/12 10:43:38;;;;;;;11.25;4.53;;;9.60;99.90;;;;;;5048654;28;20420;-66
2023/04/12 10:46:05;;;;;;;9.30;3.88;;;9.80;99.90;;;;;;5049234;28;20039;-64
2023/04/12 10:48:33;;;;;;;7.15;3.85;;;9.90;99.90;;;;;;5049942;28;20029;-63
2023/04/12 10:51:27;;;;;;;7.57;3.55;;;9.90;99.90;;;;;;5047623;28;20048;-65
2023/04/12 10:54:15;;;;;;;7.40;3.65;;;10.10;99.90;;;;;;5049059;28;20033;-63
2023/04/12 10:56:42;;;;;;;7.75;3.80;;;10.10;99.90;;;;;;5049923;28;20033;-64
2023/04/12 10:59:09;;;;;;;9.88;3.90;;;10.10;99.90;;;;;;5049420;28;20044;-63
2023/04/12 11:01:35;;;;;;;8.65;3.72;;;10.10;99.90;;;;;;5048120;28;20059;-63
2023/04/12 11:04:09;;;;;;;6.90;3.45;;;10.20;99.90;;;;;;5049048;28;20110;-64
2023/04/12 11:06:55;;;;;;;6.65;3.35;;;10.20;99.90;;;;;;5049540;28;20071;-64
2023/04/12 11:09:32;;;;;;;8.38;3.60;;;10.20;99.90;;;;;;5048625;28;20029;-63
2023/04/12 11:12:03;;;;;;;10.20;4.10;;;10.30;99.90;;;;;;5046159;28;20037;-66
2023/04/12 11:14:50;;;;;;;7.40;3.95;;;10.30;99.90;;;;;;5049335;28;20036;-65
2023/04/12 11:17:15;;;;;;;10.13;4.65;;;10.40;99.90;;;;;;5047948;28;20040;-64
2023/04/12 11:19:54;;;;;;;10.52;4.28;;;10.50;99.90;;;;;;5048657;28;20029;-64
2023/04/12 11:22:21;;;;;;;8.05;4.63;;;10.60;99.90;;;;;;5049048;28;20044;-63
2023/04/12 11:24:50;;;;;;;10.25;4.50;;;10.60;99.90;;;;;;5048579;28;20036;-69
2023/04/12 11:27:17;;;;;;;8.98;4.65;;;10.60;99.90;;;;;;5047764;28;20378;-65
2023/04/12 11:29:43;;;;;;;12.57;4.75;;;10.60;99.90;;;;;;5048047;28;20102;-63
2023/04/12 11:32:13;;;;;;;13.45;4.45;;;10.70;99.90;;;;;;5048330;28;20025;-64
2023/04/12 11:34:40;;;;;;;9.95;4.13;;;10.80;99.90;;;;;;5048879;28;20021;-64
2023/04/12 11:37:07;;;;;;;8.13;3.63;;;10.90;99.90;;;;;;5048095;28;20028;-63
2023/04/12 11:39:40;;;;;;;7.22;3.33;;;11.00;99.90;;;;;;5047754;28;20036;-66
2023/04/12 11:42:09;;;;;;;8.40;3.78;;;11.10;99.90;;;;;;5028314;28;20041;-66
2023/04/12 11:44:35;;;;;;;7.95;3.65;;;11.30;99.90;;;;;;5029043;28;20029;-64
2023/04/12 11:47:03;;;;;;;11.23;3.72;;;11.40;99.90;;;;;;5028062;28;20033;-65
2023/04/12 11:49:28;;;;;;;7.88;3.47;;;11.50;99.90;;;;;;5044216;28;20028;-62
2023/04/12 11:52:03;;;;;;;7.18;3.53;;;11.60;99.90;;;;;;5046641;28;20538;-63
2023/04/12 11:54:29;;;;;;;8.35;4.05;;;11.80;99.90;;;;;;5048579;28;20065;-65
2023/04/12 11:56:57;;;;;;;8.43;3.70;;;11.90;99.90;;;;;;5046562;28;20045;-65
2023/04/12 11:59:31;;;;;;;7.40;3.45;;;11.80;99.90;;;;;;5048431;28;20039;-65
2023/04/12 12:02:00;;;;;;;5.93;2.95;;;11.70;99.90;;;;;;5047702;28;20031;-63
2023/04/12 12:04:27;;;;;;;9.18;3.25;;;11.60;99.90;;;;;;5048501;28;20025;-64
2023/04/12 12:06:54;;;;;;;7.20;3.13;;;11.60;99.90;;;;;;5046332;28;20079;-63
2023/04/12 12:09:20;;;;;;;6.47;3.08;;;11.60;99.90;;;;;;5047100;28;20479;-66
2023/04/12 12:11:46;;;;;;;5.43;2.95;;;11.60;99.90;;;;;;5047967;28;20073;-62
2023/04/12 12:14:11;;;;;;;8.40;3.10;;;11.60;99.90;;;;;;5047352;28;20372;-63
2023/04/12 12:16:40;;;;;;;5.85;2.83;;;11.60;99.90;;;;;;5048294;28;20032;-67
2023/04/12 12:19:05;;;;;;;5.85;2.78;;;11.60;99.90;;;;;;5045746;28;20091;-63
2023/04/12 12:21:31;;;;;;;5.57;2.72;;;11.60;99.90;;;;;;5048193;28;20761;-63
2023/04/12 12:23:57;;;;;;;5.03;2.28;;;11.70;99.90;;;;;;5046266;28;20114;-66
2023/04/12 12:26:27;;;;;;;6.38;2.50;;;11.70;99.90;;;;;;5047937;28;20029;-64
2023/04/12 12:28:56;;;;;;;5.97;2.17;;;11.70;99.90;;;;;;5047557;28;20033;-70
2023/04/12 12:31:25;;;;;;;4.37;1.77;;;11.80;99.90;;;;;;5047632;28;20485;-65
2023/04/12 12:33:58;;;;;;;5.38;1.30;;;11.90;99.90;;;;;;5046537;28;20033;-69
2023/04/12 12:36:31;;;;;;;5.50;1.50;;;12.00;99.90;;;;;;5048133;28;20043;-63
2023/04/12 12:39:06;;;;;;;3.35;1.13;;;12.20;99.90;;;;;;5047305;28;20040;-66
2023/04/12 12:41:32;;;;;;;3.60;1.00;;;12.40;99.90;;;;;;5047744;28;20033;-64
2023/04/12 12:43:57;;;;;;;3.42;1.05;;;12.40;99.90;;;;;;5046098;28;20460;-65
2023/04/12 12:46:23;;;;;;;3.42;0.85;;;12.40;99.90;;;;;;5048004;28;20111;-66
2023/04/12 12:48:48;;;;;;;4.40;1.20;;;12.40;99.90;;;;;;5047918;28;20079;-64
2023/04/12 12:51:18;;;;;;;3.70;1.20;;;12.30;99.90;;;;;;5047052;28;20052;-63
2023/04/12 12:53:44;;;;;;;3.72;0.82;;;12.30;99.90;;;;;;5046850;28;20041;-67
2023/04/12 12:56:12;;;;;;;3.38;1.08;;;12.30;99.90;;;;;;5046944;28;20123;-63